KBPK Airport (Baxter County) Information

FAA: BPK - ICAO: KBPK

KBPK Airport Location

State Arkansas
County Baxter
City Mountain Home
KBPK Airport is 4 miles northwest of Mountain Home, AR.
Latitude 36-22-08.1930N
Longitude 092-28-13.8710W
Elevation 928ft

KBPK Airport METARs

METAR KBPK 301853Z AUTO VRB04KT CLR 19/04 A3010 RMK AO2 SLP188 T01940039 TSNO $
Altimeter 30.10"
Temperature 19.4°C (66.9°F)
Wind 0° at 4KT
Clouds Skies are clear.
Visibility mi
Time observed: 2021-11-30T18:53:00Z

KBPK Airport Details

Status Operational
Activation N/A
Ownership Public
Usage Public
Chart KANSAS CITY
ATC on-site No
Beacon schedule sunset-sunrise
Beacon color clear green

KBPK Airport Contacts

Owner BAXTER COUNTY
Owner address CTY COURTHOUSE 1 E 7TH ST STE 303, MOUNTAIN HOME, AR 72653
Owner phone 870-425-2755
Manager ROBERT STOBAUGH, KENWOOD AGRI AIR
Manager address 17 BRUCE CIRCLE, ATKINS, AR 72823
Manager phone (501) 354-1704

KBPK Airport (Baxter County) Radio Frequencies

KBPK (Airport) Radio Frequencies

UNICOM 123
Common traffic advisory frequency (CTAF) 123